createdAt,value
2023-02-19T00:00:17.822Z,10.33
2023-02-19T00:01:17.779Z,10.32
2023-02-19T00:02:17.798Z,10.32
2023-02-19T00:03:17.819Z,10.31
2023-02-19T00:04:17.766Z,10.30
2023-02-19T00:05:17.758Z,10.29
2023-02-19T00:06:17.718Z,10.27
2023-02-19T00:07:17.726Z,10.26
2023-02-19T00:08:17.712Z,10.25
2023-02-19T00:09:17.689Z,10.25
2023-02-19T00:10:17.666Z,10.24
2023-02-19T00:11:17.674Z,10.24
2023-02-19T00:12:17.640Z,10.24
2023-02-19T00:13:17.645Z,10.25
2023-02-19T00:14:17.636Z,10.25
2023-02-19T00:15:17.616Z,10.25
2023-02-19T00:16:17.612Z,10.24
2023-02-19T00:17:17.585Z,10.24
2023-02-19T00:18:17.593Z,10.24
2023-02-19T00:19:17.551Z,10.23
2023-02-19T00:20:17.548Z,10.23
2023-02-19T00:21:17.548Z,10.23
2023-02-19T00:22:17.516Z,10.24
2023-02-19T00:23:17.522Z,10.24
2023-02-19T00:24:17.494Z,10.23
2023-02-19T00:25:17.478Z,10.23
2023-02-19T00:26:18.910Z,10.24
2023-02-19T00:27:17.458Z,10.24
2023-02-19T00:28:17.462Z,10.25
2023-02-19T00:29:17.498Z,10.25
2023-02-19T00:30:17.462Z,10.25
2023-02-19T00:31:17.485Z,10.24
2023-02-19T00:32:17.426Z,10.24
2023-02-19T00:33:17.409Z,10.25
2023-02-19T00:34:17.375Z,10.25
2023-02-19T00:35:17.361Z,10.25
2023-02-19T00:36:17.349Z,10.24
2023-02-19T00:37:17.367Z,10.24
2023-02-19T00:38:17.414Z,10.23
2023-02-19T00:39:17.319Z,10.23
2023-02-19T00:40:17.298Z,10.22
2023-02-19T00:41:17.289Z,10.22
2023-02-19T00:42:17.271Z,10.22
2023-02-19T00:43:17.295Z,10.22
2023-02-19T00:44:17.251Z,10.22
2023-02-19T00:45:17.247Z,10.22
2023-02-19T00:46:17.288Z,10.22
2023-02-19T00:47:17.236Z,10.22
2023-02-19T00:48:17.262Z,10.22
2023-02-19T00:49:17.205Z,10.21
2023-02-19T00:50:17.175Z,10.21
2023-02-19T00:51:17.166Z,10.20
2023-02-19T00:52:17.170Z,10.19
2023-02-19T00:53:17.179Z,10.18
2023-02-19T00:54:17.151Z,10.17
2023-02-19T00:55:17.154Z,10.16
2023-02-19T00:56:17.209Z,10.16
2023-02-19T00:57:17.113Z,10.15
2023-02-19T00:58:17.086Z,10.14
2023-02-19T00:59:17.106Z,10.14
2023-02-19T01:00:17.080Z,10.14
2023-02-19T01:01:17.089Z,10.14
2023-02-19T01:02:17.034Z,10.13
2023-02-19T01:03:17.030Z,10.13
2023-02-19T01:04:17.019Z,10.13
2023-02-19T01:05:16.989Z,10.12
2023-02-19T01:06:16.978Z,10.12
2023-02-19T01:07:16.997Z,10.12
2023-02-19T01:08:16.961Z,10.13
2023-02-19T01:09:16.973Z,10.14
2023-02-19T01:10:16.948Z,10.14
2023-02-19T01:11:16.917Z,10.14
2023-02-19T01:12:16.892Z,10.13
2023-02-19T01:13:16.902Z,10.13
2023-02-19T01:14:16.874Z,10.13
2023-02-19T01:15:16.888Z,10.13
2023-02-19T01:16:16.923Z,10.13
2023-02-19T01:17:16.893Z,10.13
2023-02-19T01:18:16.908Z,10.12
2023-02-19T01:19:16.817Z,10.12
2023-02-19T01:20:16.808Z,10.11
2023-02-19T01:21:16.845Z,10.10
2023-02-19T01:22:16.777Z,10.10
2023-02-19T01:23:16.782Z,10.10
2023-02-19T01:24:16.797Z,10.11
2023-02-19T01:25:16.820Z,10.11
2023-02-19T01:26:16.721Z,10.11
2023-02-19T01:27:16.755Z,10.10
2023-02-19T01:28:16.714Z,10.09
2023-02-19T01:29:16.725Z,10.08
2023-02-19T01:30:16.739Z,10.07
2023-02-19T01:31:16.782Z,10.06
2023-02-19T01:32:16.742Z,10.06
2023-02-19T01:33:16.648Z,10.06
2023-02-19T01:34:16.657Z,10.06
2023-02-19T01:35:16.637Z,10.06
2023-02-19T01:36:16.616Z,10.05
2023-02-19T01:37:16.627Z,10.05
2023-02-19T01:38:16.592Z,10.05
2023-02-19T01:39:16.591Z,10.04
2023-02-19T01:40:16.558Z,10.04
2023-02-19T01:41:16.558Z,10.04
2023-02-19T01:42:16.563Z,10.04
2023-02-19T01:43:16.554Z,10.04
2023-02-19T01:44:16.505Z,10.04
2023-02-19T01:45:16.542Z,10.03
2023-02-19T01:46:16.517Z,10.03
2023-02-19T01:47:16.487Z,10.02
2023-02-19T01:48:16.464Z,10.02
2023-02-19T01:49:16.437Z,10.01
2023-02-19T01:50:16.431Z,10.01
2023-02-19T01:51:16.425Z,10.01
2023-02-19T01:52:16.428Z,10.01
2023-02-19T01:53:16.397Z,10.01
2023-02-19T01:54:16.380Z,10.00
2023-02-19T01:55:16.391Z,9.99
2023-02-19T01:56:16.367Z,9.97
2023-02-19T01:57:16.410Z,9.96
2023-02-19T01:58:16.360Z,9.95
2023-02-19T01:59:16.347Z,9.94
2023-02-19T02:00:16.304Z,9.93
2023-02-19T02:01:16.301Z,9.93
2023-02-19T02:02:16.302Z,9.93
2023-02-19T02:03:16.266Z,9.92
2023-02-19T02:04:16.292Z,9.92
2023-02-19T02:05:16.237Z,9.92
2023-02-19T02:06:16.273Z,9.91
2023-02-19T02:07:16.219Z,9.91
2023-02-19T02:08:16.207Z,9.90
2023-02-19T02:09:16.216Z,9.90
2023-02-19T02:10:16.212Z,9.89
2023-02-19T02:11:16.184Z,9.89
2023-02-19T02:12:16.142Z,9.89
2023-02-19T02:13:16.192Z,9.89
2023-02-19T02:14:16.197Z,9.89
2023-02-19T02:15:16.140Z,9.89
2023-02-19T02:16:16.177Z,9.88
2023-02-19T02:17:16.104Z,9.88
2023-02-19T02:18:16.102Z,9.87
2023-02-19T02:19:16.067Z,9.86
2023-02-19T02:20:16.083Z,9.85
2023-02-19T02:21:16.060Z,9.84
2023-02-19T02:22:16.027Z,9.83
2023-02-19T02:23:16.018Z,9.81
2023-02-19T02:24:16.062Z,9.80
2023-02-19T02:25:16.000Z,9.79
2023-02-19T02:26:15.998Z,9.78
2023-02-19T02:27:15.965Z,9.77
2023-02-19T02:28:15.966Z,9.75
2023-02-19T02:29:15.935Z,9.74
2023-02-19T02:30:15.972Z,9.73
2023-02-19T02:31:16.041Z,9.71
2023-02-19T02:32:16.045Z,9.69
2023-02-19T02:33:15.893Z,9.67
2023-02-19T02:34:15.912Z,9.66
2023-02-19T02:35:15.879Z,9.63
2023-02-19T02:36:15.846Z,9.60
2023-02-19T02:37:15.850Z,9.55
2023-02-19T02:38:15.822Z,9.51
2023-02-19T02:39:15.833Z,9.47
2023-02-19T02:40:15.799Z,9.45
2023-02-19T02:41:15.797Z,9.43
2023-02-19T02:42:15.775Z,9.42
2023-02-19T02:43:15.805Z,9.41
2023-02-19T02:44:15.746Z,9.40
2023-02-19T02:45:15.738Z,9.38
2023-02-19T02:46:15.725Z,9.36
2023-02-19T02:47:15.713Z,9.33
2023-02-19T02:48:15.724Z,9.31
2023-02-19T02:49:15.681Z,9.28
2023-02-19T02:50:15.671Z,9.25
2023-02-19T02:51:15.725Z,9.21
2023-02-19T02:52:15.640Z,9.18
2023-02-19T02:53:15.640Z,9.15
2023-02-19T02:54:15.651Z,9.12
2023-02-19T02:55:15.628Z,9.09
2023-02-19T02:56:15.597Z,9.04
2023-02-19T02:57:15.584Z,8.99
2023-02-19T02:58:15.580Z,8.92
2023-02-19T02:59:15.577Z,8.86
2023-02-19T03:00:15.559Z,8.80
2023-02-19T03:01:15.574Z,8.75
2023-02-19T03:02:15.585Z,8.71
2023-02-19T03:03:15.527Z,8.67
2023-02-19T03:04:15.519Z,8.65
2023-02-19T03:05:15.482Z,8.63
2023-02-19T03:06:15.493Z,8.62
2023-02-19T03:07:15.470Z,8.60
2023-02-19T03:08:15.447Z,8.58
2023-02-19T03:09:15.452Z,8.56
2023-02-19T03:10:15.420Z,8.54
2023-02-19T03:11:15.419Z,8.53
2023-02-19T03:12:15.398Z,8.50
2023-02-19T03:13:15.431Z,8.47
2023-02-19T03:14:15.381Z,8.44
2023-02-19T03:15:15.369Z,8.41
2023-02-19T03:16:15.383Z,8.39
2023-02-19T03:17:15.366Z,8.37
2023-02-19T03:18:15.355Z,8.35
2023-02-19T03:19:15.341Z,8.34
2023-02-19T03:20:15.299Z,8.33
2023-02-19T03:21:15.293Z,8.32
2023-02-19T03:22:15.276Z,8.29
2023-02-19T03:23:15.275Z,8.25
2023-02-19T03:24:15.262Z,8.20
2023-02-19T03:25:15.245Z,8.16
2023-02-19T03:26:15.224Z,8.11
2023-02-19T03:27:15.239Z,8.07
2023-02-19T03:28:15.200Z,8.04
2023-02-19T03:29:15.220Z,8.00
2023-02-19T03:30:15.222Z,7.96
2023-02-19T03:31:15.258Z,7.93
2023-02-19T03:32:15.185Z,7.90
2023-02-19T03:33:15.137Z,7.87
2023-02-19T03:34:15.121Z,7.85
2023-02-19T03:35:15.133Z,7.82
2023-02-19T03:36:15.096Z,7.78
2023-02-19T03:37:15.103Z,7.76
2023-02-19T03:38:15.091Z,7.74
2023-02-19T03:39:15.063Z,7.73
2023-02-19T03:40:15.053Z,7.70
2023-02-19T03:41:15.054Z,7.67
2023-02-19T03:42:15.021Z,7.64
2023-02-19T03:43:15.030Z,7.61
2023-02-19T03:44:14.998Z,7.59
2023-02-19T03:45:15.005Z,7.56
2023-02-19T03:46:14.969Z,7.54
2023-02-19T03:47:14.965Z,7.51
2023-02-19T03:48:14.942Z,7.48
2023-02-19T03:49:14.933Z,7.45
2023-02-19T03:50:14.937Z,7.42
2023-02-19T03:51:14.914Z,7.40
2023-02-19T03:52:14.909Z,7.38
2023-02-19T03:53:14.881Z,7.35
2023-02-19T03:54:14.865Z,7.33
2023-02-19T03:55:14.866Z,7.31
2023-02-19T03:56:14.864Z,7.29
2023-02-19T03:57:14.852Z,7.27
2023-02-19T03:58:14.819Z,7.26
2023-02-19T03:59:14.851Z,7.24
2023-02-19T04:00:14.811Z,7.22
2023-02-19T04:01:14.795Z,7.21
2023-02-19T04:02:14.809Z,7.19
2023-02-19T04:03:14.753Z,7.17
2023-02-19T04:04:14.750Z,7.15
2023-02-19T04:05:14.766Z,7.13
2023-02-19T04:06:14.773Z,7.13
2023-02-19T04:07:14.723Z,7.12
2023-02-19T04:08:14.691Z,7.12
2023-02-19T04:09:14.691Z,7.11
2023-02-19T04:10:14.668Z,7.09
2023-02-19T04:11:14.657Z,7.08
2023-02-19T04:12:14.666Z,7.07
2023-02-19T04:13:14.635Z,7.06
2023-02-19T04:14:14.620Z,7.05
2023-02-19T04:15:14.598Z,7.03
2023-02-19T04:16:14.633Z,7.02
2023-02-19T04:17:14.574Z,7.02
2023-02-19T04:18:14.562Z,7.01
2023-02-19T04:19:14.547Z,7.01
2023-02-19T04:20:14.590Z,7.00
2023-02-19T04:21:14.530Z,6.99
2023-02-19T04:22:14.509Z,6.98
2023-02-19T04:23:14.508Z,6.97
2023-02-19T04:24:14.486Z,6.96
2023-02-19T04:25:14.497Z,6.96
2023-02-19T04:26:14.474Z,6.95
2023-02-19T04:27:14.451Z,6.95
2023-02-19T04:28:14.453Z,6.94
2023-02-19T04:29:14.435Z,6.94
2023-02-19T04:30:14.451Z,6.94
2023-02-19T04:31:14.888Z,6.93
2023-02-19T04:32:14.416Z,6.92
2023-02-19T04:33:14.383Z,6.91
2023-02-19T04:34:14.349Z,6.89
2023-02-19T04:35:14.474Z,6.88
2023-02-19T04:36:14.353Z,6.88
2023-02-19T04:37:14.315Z,6.89
2023-02-19T04:38:14.300Z,6.89
2023-02-19T04:39:14.284Z,6.89
2023-02-19T04:40:14.277Z,6.89
2023-02-19T04:41:14.272Z,6.88
2023-02-19T04:42:14.262Z,6.88
2023-02-19T04:43:14.232Z,6.87
2023-02-19T04:44:14.213Z,6.87
2023-02-19T04:45:14.217Z,6.87
2023-02-19T04:46:14.271Z,6.87
2023-02-19T04:47:14.187Z,6.87
2023-02-19T04:48:14.240Z,6.87
2023-02-19T04:49:14.185Z,6.87
2023-02-19T04:50:14.136Z,6.87
2023-02-19T04:51:14.135Z,6.87
2023-02-19T04:52:14.126Z,6.87
2023-02-19T04:53:14.089Z,6.87
2023-02-19T04:54:14.078Z,6.88
2023-02-19T04:55:14.091Z,6.88
2023-02-19T04:56:14.051Z,6.88
2023-02-19T04:57:14.051Z,6.88
2023-02-19T04:58:14.042Z,6.88
2023-02-19T04:59:14.025Z,6.87
2023-02-19T05:00:13.999Z,6.88
2023-02-19T05:01:14.424Z,6.88
2023-02-19T05:02:14.040Z,6.89
2023-02-19T05:03:13.979Z,6.89
2023-02-19T05:04:14.001Z,6.89
2023-02-19T05:05:13.948Z,6.89
2023-02-19T05:06:13.921Z,6.88
2023-02-19T05:07:13.936Z,6.88
2023-02-19T05:08:13.901Z,6.89
2023-02-19T05:09:13.880Z,6.89
2023-02-19T05:10:13.900Z,6.90
2023-02-19T05:11:13.885Z,6.90
2023-02-19T05:12:13.872Z,6.91
2023-02-19T05:13:13.910Z,6.92
2023-02-19T05:14:13.822Z,6.93
2023-02-19T05:15:13.794Z,6.93
2023-02-19T05:16:13.903Z,6.94
2023-02-19T05:17:14.075Z,6.95
2023-02-19T05:18:13.816Z,6.95
2023-02-19T05:19:13.774Z,6.95
2023-02-19T05:20:13.814Z,6.96
2023-02-19T05:21:13.845Z,6.96
2023-02-19T05:22:13.733Z,6.95
2023-02-19T05:23:13.747Z,6.95
2023-02-19T05:24:13.690Z,6.96
2023-02-19T05:25:13.671Z,6.96
2023-02-19T05:26:13.658Z,6.97
2023-02-19T05:27:13.659Z,6.97
2023-02-19T05:28:13.852Z,6.98
2023-02-19T05:29:13.637Z,6.99
2023-02-19T05:30:13.704Z,6.99
2023-02-19T05:32:59.570Z,8.13
2023-02-19T05:34:00.467Z,7.69
2023-02-19T05:35:00.439Z,7.40
2023-02-19T05:36:00.391Z,7.24
2023-02-19T05:37:00.448Z,7.15
2023-02-19T05:38:00.372Z,7.10
2023-02-19T05:39:00.350Z,7.08
2023-02-19T05:40:00.327Z,7.06
2023-02-19T05:41:00.310Z,7.06
2023-02-19T05:42:00.297Z,7.06
2023-02-19T05:43:00.301Z,7.06
2023-02-19T05:44:00.297Z,7.07
2023-02-19T05:45:00.326Z,7.08
2023-02-19T05:46:00.295Z,7.08
2023-02-19T05:47:00.309Z,7.08
2023-02-19T05:48:00.269Z,7.09
2023-02-19T05:49:00.211Z,7.09
2023-02-19T05:50:00.234Z,7.10
2023-02-19T05:51:00.216Z,7.11
2023-02-19T05:52:00.195Z,7.11
2023-02-19T05:53:00.202Z,7.12
2023-02-19T05:54:00.188Z,7.12
2023-02-19T05:55:00.130Z,7.13
2023-02-19T05:56:00.183Z,7.13
2023-02-19T05:57:08.030Z,7.13
2023-02-19T05:58:00.159Z,7.14
2023-02-19T05:59:00.100Z,7.14
2023-02-19T06:00:00.096Z,7.14
2023-02-19T06:01:13.242Z,7.15
2023-02-19T06:02:00.829Z,7.16
2023-02-19T06:03:00.156Z,7.17
2023-02-19T06:04:00.123Z,7.18
2023-02-19T06:05:00.089Z,7.18
2023-02-19T06:06:00.021Z,7.19
2023-02-19T06:07:12.273Z,7.20
2023-02-19T06:08:00.099Z,7.21
2023-02-19T06:08:59.984Z,7.22
2023-02-19T06:10:00.058Z,7.22
2023-02-19T06:10:59.932Z,7.23
2023-02-19T06:12:00.031Z,7.23
2023-02-19T06:13:00.755Z,7.23
2023-02-19T06:14:00.247Z,7.23
2023-02-19T06:14:59.960Z,7.24
2023-02-19T06:15:59.988Z,7.24
2023-02-19T06:18:13.362Z,8.38
2023-02-19T06:19:14.412Z,7.93
2023-02-19T06:20:14.344Z,7.64
2023-02-19T06:21:14.347Z,7.47
2023-02-19T06:22:14.323Z,7.37
2023-02-19T06:23:14.322Z,7.32
2023-02-19T06:24:14.316Z,7.29
2023-02-19T06:25:14.314Z,7.27
2023-02-19T06:26:14.312Z,7.27
2023-02-19T06:27:14.273Z,7.27
2023-02-19T06:28:14.219Z,7.27
2023-02-19T06:29:14.215Z,7.28
2023-02-19T06:30:14.249Z,7.29
2023-02-19T06:31:14.673Z,7.30
2023-02-19T06:32:14.270Z,7.30
2023-02-19T06:33:14.171Z,7.30
2023-02-19T06:34:14.142Z,7.31
2023-02-19T06:35:14.149Z,7.31
2023-02-19T06:36:14.140Z,7.32
2023-02-19T06:37:14.109Z,7.32
2023-02-19T06:38:14.119Z,7.33
2023-02-19T06:39:14.114Z,7.34
2023-02-19T06:40:14.073Z,7.34
2023-02-19T06:41:14.544Z,7.35
2023-02-19T06:42:14.035Z,7.35
2023-02-19T06:43:14.063Z,7.35
2023-02-19T06:44:14.033Z,7.36
2023-02-19T06:45:14.009Z,7.36
2023-02-19T06:46:14.135Z,7.36
2023-02-19T06:47:13.978Z,7.36
2023-02-19T06:48:13.962Z,7.37
2023-02-19T06:49:13.956Z,7.38
2023-02-19T06:50:13.954Z,7.39
2023-02-19T06:51:13.974Z,7.40
2023-02-19T06:52:13.914Z,7.42
2023-02-19T06:53:13.905Z,7.43
2023-02-19T06:54:13.888Z,7.44
2023-02-19T06:55:13.886Z,7.44
2023-02-19T06:56:13.885Z,7.45
2023-02-19T06:57:13.855Z,7.45
2023-02-19T06:58:13.834Z,7.46
2023-02-19T06:59:13.826Z,7.47
2023-02-19T07:00:13.832Z,7.48
2023-02-19T07:01:14.037Z,7.49
2023-02-19T07:02:13.812Z,7.50
2023-02-19T07:03:13.807Z,7.51
2023-02-19T07:04:13.840Z,7.52
2023-02-19T07:05:13.762Z,7.53
2023-02-19T07:06:13.762Z,7.54
2023-02-19T07:07:13.726Z,7.55
2023-02-19T07:08:13.989Z,7.56
2023-02-19T07:09:13.698Z,7.57
2023-02-19T07:10:13.673Z,7.58
2023-02-19T07:11:13.672Z,7.59
2023-02-19T07:12:13.664Z,7.60
2023-02-19T07:13:13.639Z,7.61
2023-02-19T07:14:13.628Z,7.62
2023-02-19T07:15:13.642Z,7.63
2023-02-19T07:16:13.687Z,7.64
2023-02-19T07:17:13.614Z,7.65
2023-02-19T07:18:13.572Z,7.66
2023-02-19T07:19:13.594Z,7.67
2023-02-19T07:20:13.560Z,7.68
2023-02-19T07:21:13.796Z,7.68
2023-02-19T07:22:13.536Z,7.69
2023-02-19T07:23:13.572Z,7.69
2023-02-19T07:24:13.500Z,7.69
2023-02-19T07:25:13.548Z,7.69
2023-02-19T07:26:13.500Z,7.69
2023-02-19T07:27:13.503Z,7.69
2023-02-19T07:28:13.473Z,7.69
2023-02-19T07:29:13.446Z,7.68
2023-02-19T07:30:13.479Z,7.68
2023-02-19T07:31:13.919Z,7.67
2023-02-19T07:32:13.409Z,7.66
2023-02-19T07:33:13.391Z,7.65
2023-02-19T07:34:13.419Z,7.64
2023-02-19T07:35:13.386Z,7.64
2023-02-19T07:36:13.350Z,7.63
2023-02-19T07:37:13.352Z,7.63
2023-02-19T07:38:13.355Z,7.63
2023-02-19T07:39:13.333Z,7.62
2023-02-19T07:40:13.293Z,7.61
2023-02-19T07:41:13.648Z,7.61
2023-02-19T07:42:13.269Z,7.60
2023-02-19T07:43:13.282Z,7.60
2023-02-19T07:44:13.259Z,7.59
2023-02-19T07:45:13.268Z,7.59
2023-02-19T07:46:13.245Z,7.59
2023-02-19T07:47:13.239Z,7.59
2023-02-19T07:48:13.233Z,7.59
2023-02-19T07:49:13.202Z,7.59
2023-02-19T07:50:14.076Z,7.59
2023-02-19T07:51:13.520Z,7.59
2023-02-19T07:52:13.360Z,7.59
2023-02-19T07:53:13.140Z,7.59
2023-02-19T07:54:13.116Z,7.60
2023-02-19T07:55:13.143Z,7.60
2023-02-19T07:56:13.098Z,7.60
2023-02-19T07:57:13.141Z,7.60
2023-02-19T07:58:13.116Z,7.60
2023-02-19T07:59:13.098Z,7.60
2023-02-19T08:00:13.042Z,7.60
2023-02-19T08:01:13.458Z,7.60
2023-02-19T08:02:13.045Z,7.59
2023-02-19T08:03:13.051Z,7.60
2023-02-19T08:04:13.013Z,7.60
2023-02-19T08:05:12.996Z,7.60
2023-02-19T08:06:12.970Z,7.60
2023-02-19T08:07:12.979Z,7.60
2023-02-19T08:08:12.962Z,7.60
2023-02-19T08:09:12.959Z,7.60
2023-02-19T08:10:12.923Z,7.60
2023-02-19T08:11:13.194Z,7.61
2023-02-19T08:12:12.888Z,7.61
2023-02-19T08:13:12.878Z,7.62
2023-02-19T08:14:12.879Z,7.63
2023-02-19T08:15:13.187Z,7.63
2023-02-19T08:16:20.003Z,7.64
2023-02-19T08:17:12.899Z,7.64
2023-02-19T08:18:12.813Z,7.64
2023-02-19T08:19:12.814Z,7.64
2023-02-19T08:20:12.794Z,7.64
2023-02-19T08:21:12.790Z,7.64
2023-02-19T08:22:12.803Z,7.65
2023-02-19T08:23:12.838Z,7.65
2023-02-19T08:24:12.780Z,7.65
2023-02-19T08:25:12.732Z,7.65
2023-02-19T08:26:12.712Z,7.66
2023-02-19T08:27:12.746Z,7.67
2023-02-19T08:28:12.741Z,7.68
2023-02-19T08:29:12.682Z,7.69
2023-02-19T08:30:12.762Z,7.70
2023-02-19T08:31:13.097Z,7.70
2023-02-19T08:32:12.665Z,7.71
2023-02-19T08:33:12.629Z,7.71
2023-02-19T08:34:12.618Z,7.72
2023-02-19T08:35:12.615Z,7.72
2023-02-19T08:36:12.587Z,7.72
2023-02-19T08:37:12.586Z,7.72
2023-02-19T08:38:12.591Z,7.73
2023-02-19T08:39:12.554Z,7.73
2023-02-19T08:40:12.557Z,7.73
2023-02-19T08:41:12.898Z,7.73
2023-02-19T08:42:12.532Z,7.74
2023-02-19T08:43:12.493Z,7.75
2023-02-19T08:44:12.508Z,7.75
2023-02-19T08:45:12.470Z,7.75
2023-02-19T08:46:12.493Z,7.75
2023-02-19T08:47:12.463Z,7.75
2023-02-19T08:48:12.421Z,7.75
2023-02-19T08:49:12.425Z,7.76
2023-02-19T08:50:12.450Z,7.77
2023-02-19T08:51:12.815Z,7.78
2023-02-19T08:52:12.408Z,7.78
2023-02-19T08:53:12.367Z,7.79
2023-02-19T08:54:12.354Z,7.80
2023-02-19T08:55:12.344Z,7.81
2023-02-19T08:56:12.365Z,7.81
2023-02-19T08:57:12.342Z,7.82
2023-02-19T08:58:12.301Z,7.84
2023-02-19T08:59:12.333Z,7.85
2023-02-19T09:00:12.285Z,7.86
2023-02-19T09:01:12.764Z,7.88
2023-02-19T09:02:12.277Z,7.88
2023-02-19T09:03:12.247Z,7.89
2023-02-19T09:04:12.272Z,7.89
2023-02-19T09:05:12.212Z,7.89
2023-02-19T09:06:12.482Z,7.89
2023-02-19T09:07:12.206Z,7.90
2023-02-19T09:08:12.198Z,7.90
2023-02-19T09:09:12.155Z,7.91
2023-02-19T09:10:12.147Z,7.92
2023-02-19T09:11:12.504Z,7.93
2023-02-19T09:12:12.135Z,7.94
2023-02-19T09:13:12.114Z,7.95
2023-02-19T09:14:12.095Z,7.96
2023-02-19T09:15:12.082Z,7.97
2023-02-19T09:16:12.101Z,7.98
2023-02-19T09:17:12.054Z,7.98
2023-02-19T09:18:12.061Z,7.99
2023-02-19T09:19:12.032Z,7.99
2023-02-19T09:20:12.042Z,8.00
2023-02-19T09:21:12.446Z,8.00
2023-02-19T09:22:12.002Z,8.01
2023-02-19T09:23:11.995Z,8.01
2023-02-19T09:24:11.994Z,8.02
2023-02-19T09:25:11.977Z,8.03
2023-02-19T09:26:11.960Z,8.04
2023-02-19T09:27:11.937Z,8.04
2023-02-19T09:28:11.925Z,8.05
2023-02-19T09:29:11.906Z,8.05
2023-02-19T09:30:11.930Z,8.05
2023-02-19T09:31:12.294Z,8.05
2023-02-19T09:32:11.964Z,8.05
2023-02-19T09:33:11.851Z,8.05
2023-02-19T09:34:11.865Z,8.05
2023-02-19T09:35:11.846Z,8.06
2023-02-19T09:36:11.836Z,8.07
2023-02-19T09:37:11.807Z,8.08
2023-02-19T09:38:11.800Z,8.10
2023-02-19T09:39:11.783Z,8.12
2023-02-19T09:40:11.768Z,8.15
2023-02-19T09:41:12.093Z,8.17
2023-02-19T09:42:11.750Z,8.19
2023-02-19T09:43:11.744Z,8.21
2023-02-19T09:44:11.738Z,8.23
2023-02-19T09:45:11.711Z,8.25
2023-02-19T09:46:11.755Z,8.27
2023-02-19T09:47:11.683Z,8.29
2023-02-19T09:48:11.664Z,8.31
2023-02-19T09:49:11.749Z,8.33
2023-02-19T09:50:11.648Z,8.35
2023-02-19T09:51:11.921Z,8.37
2023-02-19T09:52:11.631Z,8.39
2023-02-19T09:53:11.602Z,8.41
2023-02-19T09:54:11.634Z,8.43
2023-02-19T09:55:11.580Z,8.43
2023-02-19T09:56:11.571Z,8.43
2023-02-19T09:57:11.585Z,8.42
2023-02-19T09:58:11.620Z,8.39
2023-02-19T09:59:11.525Z,8.36
2023-02-19T10:00:11.523Z,8.34
2023-02-19T10:01:11.997Z,8.31
2023-02-19T10:02:11.539Z,8.29
2023-02-19T10:03:11.467Z,8.27
2023-02-19T10:04:11.458Z,8.24
2023-02-19T10:05:11.513Z,8.22
2023-02-19T10:06:11.588Z,8.20
2023-02-19T10:07:11.455Z,8.19
2023-02-19T10:08:11.430Z,8.18
2023-02-19T10:09:11.415Z,8.17
2023-02-19T10:10:11.392Z,8.16
2023-02-19T10:11:11.685Z,8.16
2023-02-19T10:12:11.357Z,8.15
2023-02-19T10:13:11.360Z,8.15
2023-02-19T10:14:11.349Z,8.15
2023-02-19T10:15:11.325Z,8.16
2023-02-19T10:16:11.366Z,8.16
2023-02-19T10:17:11.295Z,8.17
2023-02-19T10:18:11.402Z,8.17
2023-02-19T10:19:11.286Z,8.18
2023-02-19T10:20:11.271Z,8.19
2023-02-19T10:21:11.761Z,8.20
2023-02-19T10:22:11.253Z,8.21
2023-02-19T10:23:11.247Z,8.23
2023-02-19T10:24:11.218Z,8.24
2023-02-19T10:25:11.190Z,8.25
2023-02-19T10:26:11.189Z,8.27
2023-02-19T10:27:11.198Z,8.28
2023-02-19T10:28:11.176Z,8.29
2023-02-19T10:29:11.144Z,8.31
2023-02-19T10:30:11.166Z,8.32
2023-02-19T10:31:11.414Z,8.34
2023-02-19T10:32:11.141Z,8.36
2023-02-19T10:33:11.126Z,8.39
2023-02-19T10:34:11.087Z,8.41
2023-02-19T10:35:11.068Z,8.43
2023-02-19T10:36:11.063Z,8.45
2023-02-19T10:37:11.041Z,8.47
2023-02-19T10:38:11.037Z,8.49
2023-02-19T10:39:11.026Z,8.51
2023-02-19T10:40:11.010Z,8.53
2023-02-19T10:41:11.263Z,8.56
2023-02-19T10:42:10.983Z,8.59
2023-02-19T10:43:10.974Z,8.63
2023-02-19T10:44:10.980Z,8.67
2023-02-19T10:45:10.946Z,8.71
2023-02-19T10:46:10.934Z,8.75
2023-02-19T10:47:10.928Z,8.78
2023-02-19T10:48:10.910Z,8.82
2023-02-19T10:49:10.894Z,8.84
2023-02-19T10:50:10.910Z,8.87
2023-02-19T10:51:11.214Z,8.90
2023-02-19T10:52:10.850Z,8.93
2023-02-19T10:53:10.852Z,8.96
2023-02-19T10:54:10.843Z,8.99
2023-02-19T10:55:10.817Z,9.03
2023-02-19T10:56:10.829Z,9.08
2023-02-19T10:57:10.818Z,9.12
2023-02-19T10:58:10.790Z,9.15
2023-02-19T10:59:10.784Z,9.18
2023-02-19T11:00:10.773Z,9.21
2023-02-19T11:01:11.092Z,9.22
2023-02-19T11:02:10.725Z,9.23
2023-02-19T11:03:10.727Z,9.25
2023-02-19T11:04:10.746Z,9.26
2023-02-19T11:05:10.690Z,9.27
2023-02-19T11:06:10.688Z,9.29
2023-02-19T11:07:10.683Z,9.31
2023-02-19T11:08:10.680Z,9.33
2023-02-19T11:09:10.643Z,9.34
2023-02-19T11:10:10.648Z,9.35
2023-02-19T11:11:10.851Z,9.36
2023-02-19T11:12:10.622Z,9.36
2023-02-19T11:13:10.621Z,9.35
2023-02-19T11:14:10.606Z,9.34
2023-02-19T11:15:10.588Z,9.34
2023-02-19T11:16:10.580Z,9.33
2023-02-19T11:17:10.564Z,9.32
2023-02-19T11:18:10.584Z,9.31
2023-02-19T11:19:10.539Z,9.30
2023-02-19T11:20:10.528Z,9.29
2023-02-19T11:21:10.793Z,9.29
2023-02-19T11:22:10.505Z,9.29
2023-02-19T11:23:10.474Z,9.29
2023-02-19T11:24:10.457Z,9.29
2023-02-19T11:25:10.459Z,9.29
2023-02-19T11:26:10.444Z,9.29
2023-02-19T11:27:10.419Z,9.29
2023-02-19T11:28:10.415Z,9.29
2023-02-19T11:29:10.432Z,9.30
2023-02-19T11:30:10.411Z,9.31
2023-02-19T11:31:11.150Z,9.32
2023-02-19T11:32:10.435Z,9.33
2023-02-19T11:33:10.369Z,9.34
2023-02-19T11:34:10.332Z,9.35
2023-02-19T11:35:10.353Z,9.36
2023-02-19T11:36:10.330Z,9.37
2023-02-19T11:37:10.297Z,9.39
2023-02-19T11:38:10.309Z,9.41
2023-02-19T11:39:10.308Z,9.42
2023-02-19T11:40:10.281Z,9.44
2023-02-19T11:41:10.906Z,9.46
2023-02-19T11:42:10.243Z,9.49
2023-02-19T11:43:10.266Z,9.51
2023-02-19T11:44:10.213Z,9.53
2023-02-19T11:45:10.235Z,9.55
2023-02-19T11:46:10.203Z,9.58
2023-02-19T11:47:10.182Z,9.62
2023-02-19T11:48:10.167Z,9.65
2023-02-19T11:49:10.179Z,9.68
2023-02-19T11:50:10.175Z,9.71
2023-02-19T11:51:10.458Z,9.73
2023-02-19T11:52:10.116Z,9.75
2023-02-19T11:53:10.135Z,9.74
2023-02-19T11:54:10.096Z,9.73
2023-02-19T11:55:10.099Z,9.71
2023-02-19T11:56:10.083Z,9.69
2023-02-19T11:57:10.055Z,9.67
2023-02-19T11:58:10.066Z,9.65
2023-02-19T11:59:10.025Z,9.62
2023-02-19T12:00:10.035Z,9.60
2023-02-19T12:01:10.395Z,9.57
2023-02-19T12:02:10.074Z,9.55
2023-02-19T12:03:09.980Z,9.52
2023-02-19T12:04:09.971Z,9.50
2023-02-19T12:05:10.001Z,9.47
2023-02-19T12:06:10.431Z,9.45
2023-02-19T12:07:09.939Z,9.42
2023-02-19T12:08:09.928Z,9.39
2023-02-19T12:09:09.931Z,9.37
2023-02-19T12:10:09.901Z,9.35
2023-02-19T12:11:09.893Z,9.33
2023-02-19T12:12:09.904Z,9.32
2023-02-19T12:13:09.859Z,9.31
2023-02-19T12:14:09.850Z,9.30
2023-02-19T12:15:09.841Z,9.30
2023-02-19T12:16:09.921Z,9.30
2023-02-19T12:17:09.806Z,9.30
2023-02-19T12:18:09.798Z,9.31
2023-02-19T12:19:09.815Z,9.33
2023-02-19T12:20:09.801Z,9.34
2023-02-19T12:21:10.046Z,9.35
2023-02-19T12:22:09.750Z,9.36
2023-02-19T12:23:09.730Z,9.37
2023-02-19T12:24:09.751Z,9.38
2023-02-19T12:25:09.724Z,9.39
2023-02-19T12:26:10.101Z,9.40
2023-02-19T12:27:09.708Z,9.40
2023-02-19T12:28:09.672Z,9.41
2023-02-19T12:29:09.660Z,9.41
2023-02-19T12:30:09.669Z,9.42
2023-02-19T12:31:09.717Z,9.42
2023-02-19T12:32:09.758Z,9.42
2023-02-19T12:33:09.641Z,9.41
2023-02-19T12:34:09.615Z,9.39
2023-02-19T12:35:09.600Z,9.38
2023-02-19T12:36:09.872Z,9.37
2023-02-19T12:37:09.564Z,9.36
2023-02-19T12:38:09.573Z,9.34
2023-02-19T12:39:09.554Z,9.33
2023-02-19T12:40:09.516Z,9.33
2023-02-19T12:41:09.515Z,9.33
2023-02-19T12:42:09.513Z,9.33
2023-02-19T12:43:09.485Z,9.33
2023-02-19T12:44:09.469Z,9.33
2023-02-19T12:45:09.464Z,9.34
2023-02-19T12:46:09.906Z,9.35
2023-02-19T12:47:09.434Z,9.34
2023-02-19T12:48:09.449Z,9.34
2023-02-19T12:49:09.408Z,9.32
2023-02-19T12:50:09.422Z,9.29
2023-02-19T12:51:09.400Z,9.27
2023-02-19T12:52:09.388Z,9.24
2023-02-19T12:53:09.378Z,9.20
2023-02-19T12:54:09.361Z,9.16
2023-02-19T12:55:09.346Z,9.11
2023-02-19T12:56:09.596Z,9.06
2023-02-19T12:57:09.310Z,9.02
2023-02-19T12:58:10.340Z,8.97
2023-02-19T12:59:09.309Z,8.93
2023-02-19T13:00:09.290Z,8.89
2023-02-19T13:01:09.281Z,8.86
2023-02-19T13:02:09.359Z,8.83
2023-02-19T13:03:09.242Z,8.81
2023-02-19T13:04:09.223Z,8.79
2023-02-19T13:05:09.207Z,8.78
2023-02-19T13:06:10.953Z,8.77
2023-02-19T13:07:09.187Z,8.77
2023-02-19T13:08:09.183Z,8.79
2023-02-19T13:09:09.157Z,8.81
2023-02-19T13:10:09.153Z,8.84
2023-02-19T13:11:09.395Z,8.87
2023-02-19T13:12:09.140Z,8.89
2023-02-19T13:13:09.132Z,8.91
2023-02-19T13:14:09.096Z,8.92
2023-02-19T13:15:09.101Z,8.94
2023-02-19T13:16:09.474Z,8.94
2023-02-19T13:17:09.055Z,8.95